Time;durP1;ratioP1;P1;durP2;ratioP2;P2;SDS_P1;SDS_P2;PMS_P1;PMS_P2;Temp;Humidity;BMP_temperature;BMP_pressure;BME280_temperature;BME280_humidity;BME280_pressure;Samples;Min_cycle;Max_cycle;Signal;HPM_P1;HPM_P2
2022/03/17 00:01:55;;;;;;;60.15;31.52;;;;;;;-141.50;100.00;63355.56;5083731;28;20051;-76
2022/03/17 00:04:22;;;;;;;62.45;32.63;;;;;;;-141.50;100.00;63355.56;5090133;28;20051;-78
2022/03/17 00:06:49;;;;;;;68.70;34.35;;;;;;;-141.50;100.00;63355.56;5089029;28;20065;-77
2022/03/17 00:09:15;;;;;;;66.85;35.78;;;;;;;-141.50;100.00;63355.56;5088337;28;20415;-78
2022/03/17 00:11:42;;;;;;;68.38;35.40;;;;;;;-141.50;100.00;63355.56;5090177;28;20083;-78
2022/03/17 00:14:09;;;;;;;68.32;34.92;;;;;;;-141.50;100.00;63355.56;5088096;28;20098;-77
2022/03/17 00:16:35;;;;;;;71.00;36.03;;;;;;;-141.50;100.00;63355.56;5088199;28;20180;-78
2022/03/17 00:19:07;;;;;;;75.47;37.47;;;;;;;-141.50;100.00;63355.56;5088626;28;20404;-76
2022/03/17 00:21:36;;;;;;;82.00;37.58;;;;;;;-141.50;100.00;63355.56;5088536;28;20055;-76
2022/03/17 00:24:04;;;;;;;80.35;39.70;;;;;;;-141.50;100.00;63355.56;5089198;28;20087;-77
2022/03/17 00:26:31;;;;;;;85.63;41.00;;;;;;;-141.50;100.00;63355.56;5087715;28;20136;-79
2022/03/17 00:28:57;;;;;;;83.53;42.72;;;;;;;-141.50;100.00;63355.56;5088528;28;20052;-77
2022/03/17 00:31:24;;;;;;;88.63;42.38;;;;;;;-141.50;100.00;63355.56;5088958;28;20075;-76
2022/03/17 00:33:50;;;;;;;88.50;41.67;;;;;;;-141.50;100.00;63355.56;5089594;28;20044;-78
2022/03/17 00:36:17;;;;;;;86.68;42.72;;;;;;;-141.50;100.00;63355.56;5088470;28;20087;-77
2022/03/17 00:38:43;;;;;;;83.18;42.85;;;;;;;-141.50;100.00;63355.56;5088352;28;20048;-77
2022/03/17 00:41:11;;;;;;;83.50;43.60;;;;;;;-141.50;100.00;63355.56;5088947;28;20067;-78
2022/03/17 00:43:37;;;;;;;87.15;45.22;;;;;;;-141.50;100.00;63355.56;5089086;28;20082;-77
2022/03/17 00:46:08;;;;;;;88.90;45.33;;;;;;;-141.50;100.00;63355.56;5078735;28;20527;-77
2022/03/17 00:48:34;;;;;;;93.47;45.45;;;;;;;-141.50;100.00;63355.56;5081699;28;20091;-78
2022/03/17 00:51:01;;;;;;;89.80;45.60;;;;;;;-141.50;100.00;63355.56;5088974;28;20047;-78
2022/03/17 00:53:27;;;;;;;87.13;44.40;;;;;;;-141.50;100.00;63355.56;5088949;28;20155;-76
2022/03/17 00:55:54;;;;;;;91.75;47.42;;;;;;;-141.50;100.00;63355.56;5088169;28;20407;-76
2022/03/17 00:58:22;;;;;;;90.93;45.92;;;;;;;-141.50;100.00;63355.56;5087833;28;20151;-76
2022/03/17 01:00:48;;;;;;;95.65;46.97;;;;;;;-141.50;100.00;63355.56;5090365;28;20105;-78
2022/03/17 01:03:15;;;;;;;92.65;46.22;;;;;;;-141.50;100.00;63355.56;5092277;28;20056;-79
2022/03/17 01:05:42;;;;;;;90.50;46.92;;;;;;;-141.50;100.00;63355.56;5091643;28;20048;-77
2022/03/17 01:08:08;;;;;;;94.53;47.60;;;;;;;-141.50;100.00;63355.56;5092510;28;20097;-78
2022/03/17 01:10:35;;;;;;;89.88;45.78;;;;;;;-141.50;100.00;63355.56;5088209;28;20080;-78
2022/03/17 01:13:03;;;;;;;91.32;46.72;;;;;;;-141.50;100.00;63355.56;5078382;28;20056;-77
2022/03/17 01:15:30;;;;;;;85.63;44.60;;;;;;;-141.50;100.00;63355.56;5090806;28;20546;-78
2022/03/17 01:17:57;;;;;;;94.00;45.60;;;;;;;-141.50;100.00;63355.56;5090444;28;20079;-76
2022/03/17 01:20:24;;;;;;;91.70;46.78;;;;;;;-141.50;100.00;63355.56;5091826;28;20113;-78
2022/03/17 01:22:50;;;;;;;90.20;45.47;;;;;;;-141.50;100.00;63355.56;5091803;28;20180;-77
2022/03/17 01:25:17;;;;;;;89.88;45.58;;;;;;;-141.50;100.00;63355.56;5091171;28;20090;-77
2022/03/17 01:27:43;;;;;;;92.03;44.35;;;;;;;-141.50;100.00;63355.56;5090684;28;20470;-79
2022/03/17 01:30:11;;;;;;;89.45;46.15;;;;;;;-141.50;100.00;63355.56;5090796;28;20094;-76
2022/03/17 01:32:38;;;;;;;95.45;47.80;;;;;;;-141.50;100.00;63355.56;5091323;28;20567;-77
2022/03/17 01:35:07;;;;;;;103.40;49.53;;;;;;;-141.50;100.00;63355.56;5091966;28;20099;-78
2022/03/17 01:37:34;;;;;;;92.65;49.42;;;;;;;-141.50;100.00;63355.56;5090818;28;20052;-77
2022/03/17 01:40:01;;;;;;;95.25;48.42;;;;;;;-141.50;100.00;63355.56;5091577;28;20130;-76
2022/03/17 01:42:28;;;;;;;99.22;49.30;;;;;;;-141.50;100.00;63355.56;5091689;28;20052;-77
2022/03/17 01:44:55;;;;;;;102.72;50.25;;;;;;;-141.50;100.00;63355.56;5090952;28;20704;-79
2022/03/17 01:47:28;;;;;;;94.72;48.90;;;;;;;-141.50;100.00;63355.56;5074492;28;20044;-78
2022/03/17 01:50:03;;;;;;;95.47;50.63;;;;;;;-141.50;100.00;63355.56;5094527;28;20117;-77
2022/03/17 01:52:30;;;;;;;99.30;50.60;;;;;;;-141.50;100.00;63355.56;5096981;28;20048;-78
2022/03/17 01:54:57;;;;;;;93.57;49.05;;;;;;;-141.50;100.00;63355.56;5092049;28;20121;-77
2022/03/17 01:57:24;;;;;;;101.13;49.92;;;;;;;-141.50;100.00;63355.56;5091024;28;20132;-77
2022/03/17 01:59:52;;;;;;;94.22;49.35;;;;;;;-141.50;100.00;63355.56;5090095;28;20079;-77
2022/03/17 02:02:20;;;;;;;94.90;48.97;;;;;;;-141.50;100.00;63355.56;5107830;28;20047;-78
2022/03/17 02:04:47;;;;;;;89.75;47.03;;;;;;;-141.50;100.00;63355.56;5108371;28;20056;-77
2022/03/17 02:07:14;;;;;;;91.80;48.58;;;;;;;-141.50;100.00;63355.56;5109297;28;20528;-76
2022/03/17 02:09:43;;;;;;;93.32;47.63;;;;;;;-141.50;100.00;63355.56;5107648;28;20048;-76
2022/03/17 02:15:05;;;;;;;93.07;46.95;;;;;;;-141.50;100.00;63355.56;5093549;28;20051;-77
2022/03/17 02:17:35;;;;;;;87.75;47.42;;;;;;;-141.50;100.00;63355.56;5100017;28;20160;-77
2022/03/17 02:20:02;;;;;;;88.70;47.65;;;;;;;-141.50;100.00;63355.56;5098230;28;20474;-77
2022/03/17 02:22:29;;;;;;;89.82;45.42;;;;;;;-141.50;100.00;63355.56;5092200;28;20094;-77
2022/03/17 02:27:45;;;;;;;89.72;45.95;;;;;;;-141.50;100.00;63355.56;5089468;28;20044;-76
2022/03/17 02:30:15;;;;;;;88.57;45.97;;;;;;;-141.50;100.00;63355.56;5089273;28;20415;-77
2022/03/17 02:32:42;;;;;;;89.10;46.88;;;;;;;-141.50;100.00;63355.56;5091956;28;20067;-79
2022/03/17 02:35:12;;;;;;;92.82;48.13;;;;;;;-141.50;100.00;63355.56;5092173;28;20109;-77
2022/03/17 02:37:39;;;;;;;93.60;47.83;;;;;;;-141.50;100.00;63355.56;5091446;28;20557;-77
2022/03/17 02:40:09;;;;;;;91.22;47.38;;;;;;;-141.50;100.00;63355.56;5090355;28;20044;-78
2022/03/17 02:42:37;;;;;;;89.75;47.95;;;;;;;-141.50;100.00;63355.56;5089234;28;20048;-77
2022/03/17 02:45:07;;;;;;;95.20;48.95;;;;;;;-141.50;100.00;63355.56;5088080;28;20113;-75
2022/03/17 02:47:33;;;;;;;90.10;46.88;;;;;;;-141.50;100.00;63355.56;5073907;28;20444;-75
2022/03/17 02:50:00;;;;;;;92.57;47.78;;;;;;;-141.50;100.00;63355.56;5090674;28;20101;-76
2022/03/17 02:52:27;;;;;;;90.75;46.15;;;;;;;-141.50;100.00;63355.56;5088613;28;20091;-80
2022/03/17 02:54:54;;;;;;;88.90;47.00;;;;;;;-141.50;100.00;63355.56;5090040;28;20048;-78
2022/03/17 02:57:21;;;;;;;95.38;48.08;;;;;;;-141.50;100.00;63355.56;5089513;28;20056;-77
2022/03/17 02:59:52;;;;;;;88.43;47.10;;;;;;;-141.50;100.00;63355.56;5088811;28;20083;-77
2022/03/17 03:02:19;;;;;;;85.70;45.17;;;;;;;-141.50;100.00;63355.56;5090608;28;20043;-76
2022/03/17 03:04:46;;;;;;;84.40;46.05;;;;;;;-141.50;100.00;63355.56;5088594;28;20044;-77
2022/03/17 03:07:13;;;;;;;91.32;46.30;;;;;;;-141.50;100.00;63355.56;5089821;28;20117;-74
2022/03/17 03:09:39;;;;;;;94.60;47.20;;;;;;;-141.50;100.00;63355.56;5088586;28;20293;-76
2022/03/17 03:12:07;;;;;;;93.57;46.17;;;;;;;-141.50;100.00;63355.56;5090636;28;20044;-77
2022/03/17 03:14:34;;;;;;;89.32;46.55;;;;;;;-141.50;100.00;63355.56;5088648;28;20134;-77
2022/03/17 03:17:00;;;;;;;91.20;46.15;;;;;;;-141.50;100.00;63355.56;5089883;28;20606;-78
2022/03/17 03:19:27;;;;;;;86.55;46.28;;;;;;;-141.50;100.00;63355.56;5087596;28;20059;-79
2022/03/17 03:21:54;;;;;;;92.55;47.33;;;;;;;-141.50;100.00;63355.56;5089335;28;20093;-77
2022/03/17 03:24:21;;;;;;;89.47;46.60;;;;;;;-141.50;100.00;63355.56;5087974;28;20048;-76
2022/03/17 03:26:47;;;;;;;82.28;45.60;;;;;;;-141.50;100.00;63355.56;5088824;28;20107;-77
2022/03/17 03:29:23;;;;;;;89.30;46.67;;;;;;;-141.50;100.00;63355.56;5088470;28;20051;-76
2022/03/17 03:31:51;;;;;;;88.20;46.10;;;;;;;-141.50;100.00;63355.56;5090199;28;20066;-76
2022/03/17 03:34:19;;;;;;;90.13;47.97;;;;;;;-141.50;100.00;63355.56;5090213;28;20402;-78
2022/03/17 03:39:33;;;;;;;;;;;;;;;-141.50;100.00;63355.56;5089946;28;20135;-77
2022/03/17 03:41:59;;;;;;;87.40;45.53;;;;;;;-141.50;100.00;63355.56;5089533;28;19951;-77
2022/03/17 03:44:26;;;;;;;89.75;45.80;;;;;;;-141.50;100.00;63355.56;5088273;28;20496;-78
2022/03/17 03:46:54;;;;;;;87.05;45.45;;;;;;;-141.50;100.00;63355.56;5073632;28;20045;-76
2022/03/17 03:49:21;;;;;;;86.65;46.08;;;;;;;-141.50;100.00;63355.56;5070500;28;20120;-77
2022/03/17 03:51:48;;;;;;;92.47;46.90;;;;;;;-141.50;100.00;63355.56;5069658;28;20566;-78
2022/03/17 03:54:17;;;;;;;87.93;45.50;;;;;;;-141.50;100.00;63355.56;5069226;28;20052;-80
2022/03/17 03:56:46;;;;;;;88.82;46.05;;;;;;;-141.50;100.00;63355.56;5068965;28;20060;-77
2022/03/17 03:59:22;;;;;;;87.93;46.55;;;;;;;-141.50;100.00;63355.56;5068009;28;20072;-77
2022/03/17 04:01:57;;;;;;;86.38;45.15;;;;;;;-141.50;100.00;63355.56;5070061;28;20064;-78
2022/03/17 04:04:25;;;;;;;64.32;34.42;;;;;;;-141.50;100.00;63355.56;5071045;28;20049;-78
2022/03/17 04:06:54;;;;;;;85.43;44.45;;;;;;;-141.50;100.00;63355.56;5069226;28;20416;-76
2022/03/17 04:09:25;;;;;;;82.75;44.33;;;;;;;-141.50;100.00;63355.56;5069714;28;20053;-77
2022/03/17 04:11:53;;;;;;;81.95;43.63;;;;;;;-141.50;100.00;63355.56;5068693;28;20083;-77
2022/03/17 04:14:20;;;;;;;85.65;43.40;;;;;;;-141.50;100.00;63355.56;5067924;28;20167;-78
2022/03/17 04:16:49;;;;;;;82.88;42.80;;;;;;;-141.50;100.00;63355.56;5070412;28;20052;-76
2022/03/17 04:19:16;;;;;;;77.80;42.63;;;;;;;-141.50;100.00;63355.56;5076230;28;20056;-77
2022/03/17 04:21:44;;;;;;;79.22;42.70;;;;;;;-141.50;100.00;63355.56;5078834;28;20056;-77
2022/03/17 04:24:10;;;;;;;78.35;42.47;;;;;;;-141.50;100.00;63355.56;5069313;28;20048;-76
2022/03/17 04:26:37;;;;;;;76.00;42.60;;;;;;;-141.50;100.00;63355.56;5069613;28;20163;-77
2022/03/17 04:29:04;;;;;;;78.55;40.35;;;;;;;-141.50;100.00;63355.56;5067992;28;20063;-78
2022/03/17 04:31:31;;;;;;;77.45;40.83;;;;;;;-141.50;100.00;63355.56;5069841;28;20077;-77
2022/03/17 04:33:57;;;;;;;76.53;40.80;;;;;;;-141.50;100.00;63355.56;5069673;28;20474;-77
2022/03/17 04:36:24;;;;;;;76.15;40.97;;;;;;;-141.50;100.00;63355.56;5072883;28;20049;-77
2022/03/17 04:38:51;;;;;;;79.88;40.08;;;;;;;-141.50;100.00;63355.56;5070591;28;20087;-77
2022/03/17 04:41:18;;;;;;;77.55;40.72;;;;;;;-141.50;100.00;63355.56;5071948;28;20047;-78
2022/03/17 04:43:46;;;;;;;79.15;39.17;;;;;;;-141.50;100.00;63355.56;5071312;28;20106;-77
2022/03/17 04:46:16;;;;;;;77.70;41.33;;;;;;;-141.50;100.00;63355.56;5079643;28;20049;-77
2022/03/17 04:48:43;;;;;;;73.55;40.25;;;;;;;-141.50;100.00;63355.56;5086061;28;20093;-78
2022/03/17 04:51:10;;;;;;;72.45;39.92;;;;;;;-141.50;100.00;63355.56;5092554;28;20082;-78
2022/03/17 04:53:37;;;;;;;73.15;39.05;;;;;;;-141.50;100.00;63355.56;5082864;28;20049;-76
2022/03/17 04:56:12;;;;;;;72.13;38.88;;;;;;;-141.50;100.00;63355.56;5080141;28;20067;-75
2022/03/17 04:58:40;;;;;;;73.03;39.35;;;;;;;-141.50;100.00;63355.56;5088261;28;20097;-79
2022/03/17 05:01:09;;;;;;;74.80;40.28;;;;;;;-141.50;100.00;63355.56;5075062;28;20080;-77
2022/03/17 05:03:37;;;;;;;77.25;39.30;;;;;;;-141.50;100.00;63355.56;5071916;28;20044;-77
2022/03/17 05:06:04;;;;;;;74.93;39.40;;;;;;;-141.50;100.00;63355.56;5071983;28;20063;-75
2022/03/17 05:08:35;;;;;;;68.60;37.75;;;;;;;-141.50;100.00;63355.56;5073812;28;20141;-75
2022/03/17 05:11:06;;;;;;;74.63;38.75;;;;;;;-141.50;100.00;63355.56;5071917;28;20052;-77
2022/03/17 05:13:33;;;;;;;70.32;38.05;;;;;;;-141.50;100.00;63355.56;5071751;28;20045;-78
2022/03/17 05:16:00;;;;;;;71.88;37.78;;;;;;;-141.50;100.00;63355.56;5070764;28;20131;-77
2022/03/17 05:18:27;;;;;;;72.13;37.95;;;;;;;-141.50;100.00;63355.56;5070825;28;20490;-76
2022/03/17 05:20:53;;;;;;;67.55;37.47;;;;;;;-141.50;100.00;63355.56;5093723;28;20044;-76
2022/03/17 05:23:20;;;;;;;72.55;37.50;;;;;;;-141.50;100.00;63355.56;5092349;28;20091;-78
2022/03/17 05:25:48;;;;;;;69.72;36.90;;;;;;;-141.50;100.00;63355.56;5089255;28;20048;-76
2022/03/17 05:28:16;;;;;;;68.60;37.28;;;;;;;-141.50;100.00;63355.56;5089879;28;20224;-80
2022/03/17 05:30:44;;;;;;;63.63;37.33;;;;;;;-141.50;100.00;63355.56;5092476;28;20040;-77
2022/03/17 05:33:11;;;;;;;68.68;37.78;;;;;;;-141.50;100.00;63355.56;5086904;28;20127;-78
2022/03/17 05:35:39;;;;;;;68.63;37.55;;;;;;;-141.50;100.00;63355.56;5094326;28;20055;-76
2022/03/17 05:38:06;;;;;;;68.07;36.88;;;;;;;-141.50;100.00;63355.56;5101502;28;20051;-78
2022/03/17 05:40:32;;;;;;;73.50;38.08;;;;;;;-141.50;100.00;63355.56;5094587;28;20070;-77
2022/03/17 05:43:01;;;;;;;71.20;38.08;;;;;;;-141.50;100.00;63355.56;5092260;28;20055;-77
2022/03/17 05:45:29;;;;;;;74.28;38.40;;;;;;;-141.50;100.00;63355.56;5087559;28;20113;-78
2022/03/17 05:48:01;;;;;;;72.07;38.40;;;;;;;-141.50;100.00;63355.56;5077642;28;20097;-77
2022/03/17 05:50:31;;;;;;;71.30;38.55;;;;;;;-141.50;100.00;63355.56;5091878;28;20052;-76
2022/03/17 05:53:00;;;;;;;67.18;37.13;;;;;;;-141.50;100.00;63355.56;5091197;28;20112;-77
2022/03/17 05:55:27;;;;;;;73.47;39.60;;;;;;;-141.50;100.00;63355.56;5089974;28;20463;-76
2022/03/17 05:57:57;;;;;;;77.90;40.10;;;;;;;-141.50;100.00;63355.56;5093322;28;20056;-78
2022/03/17 06:00:26;;;;;;;74.18;39.83;;;;;;;-141.50;100.00;63355.56;5092696;28;20333;-77
2022/03/17 06:02:53;;;;;;;73.88;40.30;;;;;;;-141.50;100.00;63355.56;5094534;28;20044;-76
2022/03/17 06:05:20;;;;;;;73.70;39.78;;;;;;;-141.50;100.00;63355.56;5090132;28;20101;-76
2022/03/17 06:07:50;;;;;;;72.90;41.45;;;;;;;-141.50;100.00;63355.56;5100843;28;20048;-77
2022/03/17 06:10:24;;;;;;;76.80;40.38;;;;;;;-141.50;100.00;63355.56;5099102;28;20074;-76
2022/03/17 06:12:52;;;;;;;73.30;42.00;;;;;;;-141.50;100.00;63355.56;5096571;28;20566;-79
2022/03/17 06:15:21;;;;;;;70.32;39.65;;;;;;;-141.50;100.00;63355.56;5096424;28;20056;-79
2022/03/17 06:17:50;;;;;;;77.78;41.22;;;;;;;-141.50;100.00;63355.56;5098809;28;20048;-77
2022/03/17 06:20:20;;;;;;;76.03;39.60;;;;;;;-141.50;100.00;63355.56;5093677;28;20078;-75
2022/03/17 06:22:53;;;;;;;78.10;41.22;;;;;;;-141.50;100.00;63355.56;5089640;28;20040;-78
2022/03/17 06:25:23;;;;;;;77.22;41.38;;;;;;;-141.50;100.00;63355.56;5076978;28;20044;-79
2022/03/17 06:27:50;;;;;;;71.43;40.72;;;;;;;-141.50;100.00;63355.56;5079834;28;20180;-78
2022/03/17 06:30:19;;;;;;;73.10;41.17;;;;;;;-141.50;100.00;63355.56;5100073;28;20044;-77
2022/03/17 06:32:46;;;;;;;71.60;40.90;;;;;;;-141.50;100.00;63355.56;5093148;28;20053;-79
2022/03/17 06:35:17;;;;;;;80.57;42.28;;;;;;;-141.50;100.00;63355.56;5081274;28;20486;-78
2022/03/17 06:37:45;;;;;;;78.00;41.33;;;;;;;-141.50;100.00;63355.56;5096442;28;20051;-78
2022/03/17 06:40:13;;;;;;;76.70;42.65;;;;;;;-141.50;100.00;63355.56;5092341;28;20057;-79
2022/03/17 06:42:39;;;;;;;74.63;41.10;;;;;;;-141.50;100.00;63355.56;5086783;28;20075;-78
2022/03/17 06:45:07;;;;;;;75.20;42.47;;;;;;;-141.50;100.00;63355.56;5090053;28;20052;-79
2022/03/17 06:47:34;;;;;;;75.20;41.45;;;;;;;-141.50;100.00;63355.56;5086643;28;20556;-79
2022/03/17 06:50:00;;;;;;;75.82;42.63;;;;;;;-141.50;100.00;63355.56;5102741;28;20455;-79
2022/03/17 06:52:27;;;;;;;79.35;43.10;;;;;;;-141.50;100.00;63355.56;5100083;28;20047;-79
2022/03/17 06:54:53;;;;;;;79.93;42.17;;;;;;;-141.50;100.00;63355.56;5100123;28;20063;-77
2022/03/17 06:57:21;;;;;;;79.25;43.28;;;;;;;-141.50;100.00;63355.56;5096147;28;20545;-79
2022/03/17 06:59:49;;;;;;;78.20;42.55;;;;;;;-141.50;100.00;63355.56;5081945;28;20067;-78
2022/03/17 07:02:17;;;;;;;74.25;42.92;;;;;;;-141.50;100.00;63355.56;5081653;28;20048;-78
2022/03/17 07:04:44;;;;;;;73.63;42.33;;;;;;;-141.50;100.00;63355.56;5078661;28;20128;-79
2022/03/17 07:07:11;;;;;;;74.20;43.22;;;;;;;-141.50;100.00;63355.56;5076265;28;20079;-78
2022/03/17 07:09:38;;;;;;;73.13;41.33;;;;;;;-141.50;100.00;63355.56;5077228;28;20102;-78
2022/03/17 07:12:05;;;;;;;72.85;40.88;;;;;;;-141.50;100.00;63355.56;5078324;28;20098;-79
2022/03/17 07:14:31;;;;;;;74.70;40.35;;;;;;;-141.50;100.00;63355.56;5074880;28;20056;-78
2022/03/17 07:16:58;;;;;;;70.53;39.42;;;;;;;-141.50;100.00;63355.56;5074717;28;20049;-80
2022/03/17 07:19:25;;;;;;;75.47;40.78;;;;;;;-141.50;100.00;63355.56;5078831;28;20044;-78
2022/03/17 07:21:53;;;;;;;74.63;40.55;;;;;;;-141.50;100.00;63355.56;5080506;28;20040;-77
2022/03/17 07:24:20;;;;;;;74.38;40.83;;;;;;;-141.50;100.00;63355.56;5080096;28;20087;-77
2022/03/17 07:26:47;;;;;;;73.43;40.97;;;;;;;-141.50;100.00;63355.56;5096683;28;20048;-77
2022/03/17 07:29:18;;;;;;;76.35;41.75;;;;;;;-141.50;100.00;63355.56;5101209;28;20052;-77
2022/03/17 07:31:44;;;;;;;72.95;40.50;;;;;;;-141.50;100.00;63355.56;5100756;28;20052;-78
2022/03/17 07:34:12;;;;;;;71.00;40.42;;;;;;;-141.50;100.00;63355.56;5090083;28;20051;-78
2022/03/17 07:36:40;;;;;;;72.95;41.30;;;;;;;-141.50;100.00;63355.56;5101211;28;20052;-77
2022/03/17 07:39:07;;;;;;;78.20;42.88;;;;;;;-141.50;100.00;63355.56;5097686;28;20044;-76
2022/03/17 07:41:36;;;;;;;100.82;49.65;;;;;;;-141.50;100.00;63355.56;5091995;28;20044;-79
2022/03/17 07:44:07;;;;;;;111.00;51.35;;;;;;;-141.50;100.00;63355.56;5091236;28;20062;-76
2022/03/17 07:46:33;;;;;;;90.90;47.78;;;;;;;-141.50;100.00;63355.56;5096774;28;20048;-79
2022/03/17 07:49:00;;;;;;;92.88;47.40;;;;;;;-141.50;100.00;63355.56;5095717;28;20052;-77
2022/03/17 07:51:27;;;;;;;96.18;47.65;;;;;;;-141.50;100.00;63355.56;5084547;28;20044;-77
2022/03/17 07:53:54;;;;;;;81.30;43.67;;;;;;;-141.50;100.00;63355.56;5082126;28;20570;-78
2022/03/17 07:56:20;;;;;;;109.68;53.67;;;;;;;-141.50;100.00;63355.56;5089824;28;20044;-78
2022/03/17 07:58:47;;;;;;;94.70;47.20;;;;;;;-141.50;100.00;63355.56;5097583;28;20090;-77
2022/03/17 08:01:16;;;;;;;95.82;48.47;;;;;;;-141.50;100.00;63355.56;5088009;28;20044;-80
2022/03/17 08:03:43;;;;;;;68.03;39.38;;;;;;;-141.50;100.00;63355.56;5086298;28;20049;-78
2022/03/17 08:06:13;;;;;;;64.53;37.33;;;;;;;-141.50;100.00;63355.56;5085502;28;20067;-80
2022/03/17 08:08:41;;;;;;;66.40;37.05;;;;;;;-141.50;100.00;63355.56;5084436;28;20060;-79
2022/03/17 08:11:08;;;;;;;64.50;35.35;;;;;;;-141.50;100.00;63355.56;5107038;28;20048;-80
2022/03/17 08:13:35;;;;;;;60.80;34.78;;;;;;;-141.50;100.00;63355.56;5102573;28;20048;-78
2022/03/17 08:16:01;;;;;;;61.28;33.88;;;;;;;-141.50;100.00;63355.56;5086006;28;20072;-79
2022/03/17 08:18:30;;;;;;;62.10;35.72;;;;;;;-141.50;100.00;63355.56;5091178;28;20580;-78
2022/03/17 08:20:56;;;;;;;58.97;34.45;;;;;;;-141.50;100.00;63355.56;5089937;28;20056;-81
2022/03/17 08:23:23;;;;;;;61.47;33.67;;;;;;;-141.50;100.00;63355.56;5092597;28;20040;-82
2022/03/17 08:25:50;;;;;;;66.65;34.58;;;;;;;-141.50;100.00;63355.56;5093048;28;20053;-79
2022/03/17 08:28:19;;;;;;;66.03;35.17;;;;;;;-141.50;100.00;63355.56;5091028;28;20099;-78
2022/03/17 08:30:47;;;;;;;62.83;35.22;;;;;;;-141.50;100.00;63355.56;5091146;28;20045;-80
2022/03/17 08:33:15;;;;;;;62.38;33.42;;;;;;;-141.50;100.00;63355.56;5093059;28;20052;-79
2022/03/17 08:35:42;;;;;;;67.25;35.88;;;;;;;-141.50;100.00;63355.56;5093450;28;20049;-81
2022/03/17 08:38:10;;;;;;;62.42;34.70;;;;;;;-141.50;100.00;63355.56;5092818;28;20053;-78
2022/03/17 08:40:40;;;;;;;60.40;34.85;;;;;;;-141.50;100.00;63355.56;5089944;28;20056;-77
2022/03/17 08:43:11;;;;;;;59.72;35.10;;;;;;;-141.50;100.00;63355.56;5091008;28;20044;-78
2022/03/17 08:51:12;;;;;;;58.75;33.88;;;;;;;-141.50;100.00;63355.56;5107993;28;20052;-80
2022/03/17 08:53:39;;;;;;;61.33;34.28;;;;;;;-141.50;100.00;63355.56;5109296;28;20043;-80
2022/03/17 08:56:06;;;;;;;60.45;33.33;;;;;;;-141.50;100.00;63355.56;5109020;28;20055;-78
2022/03/17 08:58:35;;;;;;;65.28;32.92;;;;;;;-141.50;100.00;63355.56;5114266;28;20058;-81
2022/03/17 09:01:02;;;;;;;54.53;32.58;;;;;;;-141.50;100.00;63355.56;5116877;28;20043;-81
2022/03/17 09:03:30;;;;;;;54.83;33.10;;;;;;;-141.50;100.00;63355.56;5116316;28;20046;-79
2022/03/17 09:06:00;;;;;;;57.70;32.58;;;;;;;-141.50;100.00;63355.56;5101017;28;20048;-80
2022/03/17 09:08:28;;;;;;;55.58;32.00;;;;;;;-141.50;100.00;63355.56;5100085;28;20134;-79
2022/03/17 09:10:56;;;;;;;59.15;32.10;;;;;;;-141.50;100.00;63355.56;5102727;28;20086;-80
2022/03/17 09:13:26;;;;;;;54.40;31.40;;;;;;;-141.50;100.00;63355.56;5088186;28;20416;-78
2022/03/17 09:15:54;;;;;;;60.78;31.40;;;;;;;-141.50;100.00;63355.56;5085389;28;20052;-79
2022/03/17 09:18:22;;;;;;;51.47;30.38;;;;;;;-141.50;100.00;63355.56;5084611;28;20048;-81
2022/03/17 09:20:49;;;;;;;57.88;29.80;;;;;;;-141.50;100.00;63355.56;5083114;28;20044;-79
2022/03/17 09:23:16;;;;;;;52.75;29.10;;;;;;;-141.50;100.00;63355.56;5104415;28;20048;-77
2022/03/17 09:25:43;;;;;;;60.28;29.23;;;;;;;-141.50;100.00;63355.56;5109368;28;20044;-80
2022/03/17 09:28:10;;;;;;;50.42;29.48;;;;;;;-141.50;100.00;63355.56;5103585;28;20053;-80
2022/03/17 09:30:37;;;;;;;49.55;28.08;;;;;;;-141.50;100.00;63355.56;5105268;28;20070;-81
2022/03/17 09:33:05;;;;;;;58.97;27.50;;;;;;;-141.50;100.00;63355.56;5094761;28;20067;-80
2022/03/17 09:35:34;;;;;;;46.17;27.02;;;;;;;-141.50;100.00;63355.56;5096040;28;20049;-78
2022/03/17 09:38:03;;;;;;;49.13;27.13;;;;;;;-141.50;100.00;63355.56;5110099;28;20056;-77
2022/03/17 09:40:30;;;;;;;46.28;26.48;;;;;;;-141.50;100.00;63355.56;5108794;28;20048;-79
2022/03/17 09:45:43;;;;;;;43.00;25.38;;;;;;;-141.50;100.00;63355.56;5098974;28;20032;-79
2022/03/17 09:48:11;;;;;;;41.78;24.00;;;;;;;-141.50;100.00;63355.56;5099706;28;20064;-80
2022/03/17 09:50:39;;;;;;;42.58;24.88;;;;;;;-141.50;100.00;63355.56;5090899;28;20033;-79
2022/03/17 09:53:07;;;;;;;45.53;24.95;;;;;;;-141.50;100.00;63355.56;5092785;28;20029;-81
2022/03/17 09:55:35;;;;;;;45.22;24.88;;;;;;;-141.50;100.00;63355.56;5091252;28;20093;-80
2022/03/17 09:58:06;;;;;;;45.38;23.67;;;;;;;-141.50;100.00;63355.56;5090961;28;20048;-79
2022/03/17 10:00:48;;;;;;;40.00;21.98;;;;;;;-141.50;100.00;63355.56;5089414;28;20108;-78
2022/03/17 10:03:18;;;;;;;37.53;21.30;;;;;;;-141.50;100.00;63355.56;5101770;28;20051;-78
2022/03/17 10:05:47;;;;;;;36.88;21.98;;;;;;;-141.50;100.00;63355.56;5108968;28;20054;-83
2022/03/17 10:08:20;;;;;;;47.85;21.52;;;;;;;-141.50;100.00;63355.56;5108732;28;20048;-78
2022/03/17 10:10:49;;;;;;;38.05;19.58;;;;;;;-141.50;100.00;63355.56;5109633;28;20056;-78
2022/03/17 10:13:21;;;;;;;32.80;19.25;;;;;;;-141.50;100.00;63355.56;5107524;28;20493;-79
2022/03/17 10:16:09;;;;;;;38.17;20.05;;;;;;;-141.50;100.00;63355.56;5106506;28;20548;-77
2022/03/17 10:18:37;;;;;;;40.33;20.08;;;;;;;-141.50;100.00;63355.56;5106305;28;20043;-79
2022/03/17 10:21:08;;;;;;;33.85;19.02;;;;;;;-141.50;100.00;63355.56;5105952;28;20115;-78
2022/03/17 10:23:46;;;;;;;34.38;19.73;;;;;;;-141.50;100.00;63355.56;5109925;28;20063;-79
2022/03/17 10:26:30;;;;;;;33.53;19.30;;;;;;;-141.50;100.00;63355.56;5110234;28;20048;-78
2022/03/17 10:29:22;;;;;;;38.78;19.23;;;;;;;-141.50;100.00;63355.56;5105368;28;20051;-80
2022/03/17 10:32:03;;;;;;;32.20;17.95;;;;;;;-141.50;100.00;63355.56;5106118;28;20086;-77
2022/03/17 10:34:33;;;;;;;31.23;17.48;;;;;;;-141.50;100.00;63355.56;5106911;28;20048;-81
2022/03/17 10:37:08;;;;;;;36.58;19.00;;;;;;;-141.50;100.00;63355.56;5108255;28;20032;-77
2022/03/17 10:39:42;;;;;;;39.10;18.13;;;;;;;-141.50;100.00;63355.56;5106553;28;20051;-79
2022/03/17 10:42:30;;;;;;;37.40;17.35;;;;;;;-141.50;100.00;63355.56;5104955;28;20048;-80
2022/03/17 10:45:01;;;;;;;33.55;17.10;;;;;;;-141.50;100.00;63355.56;5107123;28;20044;-80
2022/03/17 10:47:31;;;;;;;33.17;17.23;;;;;;;-141.50;100.00;63355.56;5099049;28;20112;-79
2022/03/17 10:50:22;;;;;;;35.28;17.60;;;;;;;-141.50;100.00;63355.56;5085485;28;20048;-80
2022/03/17 10:52:56;;;;;;;32.92;16.23;;;;;;;-141.50;100.00;63355.56;5104822;28;20048;-78
2022/03/17 10:55:24;;;;;;;26.23;15.52;;;;;;;-141.50;100.00;63355.56;5108321;28;20044;-78
2022/03/17 10:57:54;;;;;;;30.75;16.10;;;;;;;-141.50;100.00;63355.56;5103391;28;20097;-79
2022/03/17 11:00:27;;;;;;;31.88;17.63;;;;;;;-141.50;100.00;63355.56;5105655;28;20520;-78
2022/03/17 11:02:59;;;;;;;32.85;17.23;;;;;;;-141.50;100.00;63355.56;5106546;28;20074;-79
2022/03/17 11:05:29;;;;;;;33.55;17.27;;;;;;;-141.50;100.00;63355.56;5105855;28;20099;-80
2022/03/17 11:07:58;;;;;;;33.55;17.23;;;;;;;-141.50;100.00;63355.56;5103730;28;20055;-81
2022/03/17 11:10:25;;;;;;;35.90;18.08;;;;;;;-141.50;100.00;63355.56;5102880;28;20047;-81
2022/03/17 11:12:52;;;;;;;41.15;17.95;;;;;;;-141.50;100.00;63355.56;5099805;28;20099;-80
2022/03/17 11:15:30;;;;;;;32.42;16.98;;;;;;;-141.50;100.00;63355.56;5096077;28;20097;-79
2022/03/17 11:18:06;;;;;;;31.85;17.52;;;;;;;-141.50;100.00;63355.56;5091483;28;20496;-78